sensor_id;sensor_type;location;lat;lon;timestamp;temperature;humidity
80192;SHT31;69513;51.990;5.704;2024-03-06T00:02:25;8.9;72.5
80192;SHT31;69513;51.990;5.704;2024-03-06T00:04:55;8.9;72.4
80192;SHT31;69513;51.990;5.704;2024-03-06T00:07:26;8.9;72.4
80192;SHT31;69513;51.990;5.704;2024-03-06T00:09:57;8.8;72.3
80192;SHT31;69513;51.990;5.704;2024-03-06T00:12:26;8.8;72.4
80192;SHT31;69513;51.990;5.704;2024-03-06T00:14:56;8.8;72.3
80192;SHT31;69513;51.990;5.704;2024-03-06T00:17:25;8.8;72.5
80192;SHT31;69513;51.990;5.704;2024-03-06T00:19:54;8.8;72.4
80192;SHT31;69513;51.990;5.704;2024-03-06T00:22:24;8.7;72.4
80192;SHT31;69513;51.990;5.704;2024-03-06T00:24:55;8.7;72.4
80192;SHT31;69513;51.990;5.704;2024-03-06T00:27:25;8.7;72.5
80192;SHT31;69513;51.990;5.704;2024-03-06T00:29:54;8.7;72.3
80192;SHT31;69513;51.990;5.704;2024-03-06T00:32:24;8.7;72.4
80192;SHT31;69513;51.990;5.704;2024-03-06T00:34:53;8.6;72.4
80192;SHT31;69513;51.990;5.704;2024-03-06T00:37:22;8.6;72.2
80192;SHT31;69513;51.990;5.704;2024-03-06T00:39:52;8.6;72.1
80192;SHT31;69513;51.990;5.704;2024-03-06T00:42:21;8.6;71.8
80192;SHT31;69513;51.990;5.704;2024-03-06T00:44:52;8.6;71.7
80192;SHT31;69513;51.990;5.704;2024-03-06T00:47:21;8.6;71.8
80192;SHT31;69513;51.990;5.704;2024-03-06T00:49:51;8.5;71.9
80192;SHT31;69513;51.990;5.704;2024-03-06T00:52:20;8.5;71.8
80192;SHT31;69513;51.990;5.704;2024-03-06T00:54:49;8.5;71.8
80192;SHT31;69513;51.990;5.704;2024-03-06T00:57:19;8.5;71.8
80192;SHT31;69513;51.990;5.704;2024-03-06T00:59:48;8.5;71.9
80192;SHT31;69513;51.990;5.704;2024-03-06T01:02:18;8.4;71.9
80192;SHT31;69513;51.990;5.704;2024-03-06T01:04:48;8.4;71.9
80192;SHT31;69513;51.990;5.704;2024-03-06T01:07:17;8.4;72.1
80192;SHT31;69513;51.990;5.704;2024-03-06T01:09:47;8.4;72.4
80192;SHT31;69513;51.990;5.704;2024-03-06T01:12:17;8.4;72.5
80192;SHT31;69513;51.990;5.704;2024-03-06T01:14:48;8.4;72.4
80192;SHT31;69513;51.990;5.704;2024-03-06T01:17:18;8.4;72.4
80192;SHT31;69513;51.990;5.704;2024-03-06T01:19:50;8.4;72.5
80192;SHT31;69513;51.990;5.704;2024-03-06T01:22:19;8.4;72.5
80192;SHT31;69513;51.990;5.704;2024-03-06T01:24:49;8.4;72.5
80192;SHT31;69513;51.990;5.704;2024-03-06T01:27:18;8.4;72.6
80192;SHT31;69513;51.990;5.704;2024-03-06T01:29:48;8.4;72.5
80192;SHT31;69513;51.990;5.704;2024-03-06T01:32:18;8.3;72.4
80192;SHT31;69513;51.990;5.704;2024-03-06T01:34:48;8.3;72.4
80192;SHT31;69513;51.990;5.704;2024-03-06T01:37:17;8.3;72.5
80192;SHT31;69513;51.990;5.704;2024-03-06T01:39:49;8.3;72.4
80192;SHT31;69513;51.990;5.704;2024-03-06T01:42:19;8.3;72.4
80192;SHT31;69513;51.990;5.704;2024-03-06T01:44:48;8.3;72.3
80192;SHT31;69513;51.990;5.704;2024-03-06T01:47:18;8.3;72.3
80192;SHT31;69513;51.990;5.704;2024-03-06T01:49:48;8.3;72.2
80192;SHT31;69513;51.990;5.704;2024-03-06T01:52:21;8.3;72.3
80192;SHT31;69513;51.990;5.704;2024-03-06T01:54:52;8.2;72.2
80192;SHT31;69513;51.990;5.704;2024-03-06T01:57:24;8.2;72.3
80192;SHT31;69513;51.990;5.704;2024-03-06T01:59:55;8.2;72.4
80192;SHT31;69513;51.990;5.704;2024-03-06T02:02:25;8.2;72.4
80192;SHT31;69513;51.990;5.704;2024-03-06T02:04:56;8.2;72.4
80192;SHT31;69513;51.990;5.704;2024-03-06T02:07:28;8.2;72.4
80192;SHT31;69513;51.990;5.704;2024-03-06T02:10:05;8.2;72.3
80192;SHT31;69513;51.990;5.704;2024-03-06T02:12:39;8.1;72.1
80192;SHT31;69513;51.990;5.704;2024-03-06T02:15:12;8.1;72.0
80192;SHT31;69513;51.990;5.704;2024-03-06T02:17:44;8.1;71.7
80192;SHT31;69513;51.990;5.704;2024-03-06T02:20:16;8.1;71.6
80192;SHT31;69513;51.990;5.704;2024-03-06T02:22:46;8.1;71.8
80192;SHT31;69513;51.990;5.704;2024-03-06T02:25:16;8.1;72.0
80192;SHT31;69513;51.990;5.704;2024-03-06T02:27:48;8.1;71.9
80192;SHT31;69513;51.990;5.704;2024-03-06T02:30:21;8.1;72.0
80192;SHT31;69513;51.990;5.704;2024-03-06T02:32:51;8.0;72.2
80192;SHT31;69513;51.990;5.704;2024-03-06T02:35:20;8.0;72.3
80192;SHT31;69513;51.990;5.704;2024-03-06T02:37:51;8.0;72.6
80192;SHT31;69513;51.990;5.704;2024-03-06T02:40:20;8.0;72.3
80192;SHT31;69513;51.990;5.704;2024-03-06T02:42:50;8.0;72.3
80192;SHT31;69513;51.990;5.704;2024-03-06T02:45:19;8.0;72.2
80192;SHT31;69513;51.990;5.704;2024-03-06T02:47:49;8.0;72.1
80192;SHT31;69513;51.990;5.704;2024-03-06T02:50:19;7.9;72.4
80192;SHT31;69513;51.990;5.704;2024-03-06T02:52:51;7.9;72.6
80192;SHT31;69513;51.990;5.704;2024-03-06T02:55:23;7.9;72.5
80192;SHT31;69513;51.990;5.704;2024-03-06T02:57:53;7.9;72.5
80192;SHT31;69513;51.990;5.704;2024-03-06T03:00:22;7.9;72.4
80192;SHT31;69513;51.990;5.704;2024-03-06T03:02:52;7.9;72.3
80192;SHT31;69513;51.990;5.704;2024-03-06T03:05:22;7.8;72.4
80192;SHT31;69513;51.990;5.704;2024-03-06T03:07:51;7.8;72.7
80192;SHT31;69513;51.990;5.704;2024-03-06T03:10:22;7.8;72.6
80192;SHT31;69513;51.990;5.704;2024-03-06T03:12:56;7.8;72.7
80192;SHT31;69513;51.990;5.704;2024-03-06T03:15:25;7.8;72.7
80192;SHT31;69513;51.990;5.704;2024-03-06T03:17:57;7.8;72.7
80192;SHT31;69513;51.990;5.704;2024-03-06T03:20:26;7.8;72.6
80192;SHT31;69513;51.990;5.704;2024-03-06T03:22:56;7.8;72.7
80192;SHT31;69513;51.990;5.704;2024-03-06T03:25:27;7.8;72.6
80192;SHT31;69513;51.990;5.704;2024-03-06T03:27:58;7.8;72.7
80192;SHT31;69513;51.990;5.704;2024-03-06T03:30:28;7.8;72.7
80192;SHT31;69513;51.990;5.704;2024-03-06T03:33:01;7.7;72.9
80192;SHT31;69513;51.990;5.704;2024-03-06T03:35:30;7.7;72.8
80192;SHT31;69513;51.990;5.704;2024-03-06T03:37:59;7.7;72.9
80192;SHT31;69513;51.990;5.704;2024-03-06T03:40:33;7.7;72.7
80192;SHT31;69513;51.990;5.704;2024-03-06T03:43:03;7.7;72.5
80192;SHT31;69513;51.990;5.704;2024-03-06T03:45:34;7.7;72.5
80192;SHT31;69513;51.990;5.704;2024-03-06T03:48:08;7.7;72.5
80192;SHT31;69513;51.990;5.704;2024-03-06T03:50:37;7.6;72.4
80192;SHT31;69513;51.990;5.704;2024-03-06T03:53:07;7.6;72.3
80192;SHT31;69513;51.990;5.704;2024-03-06T03:55:37;7.6;72.0
80192;SHT31;69513;51.990;5.704;2024-03-06T03:58:08;7.6;72.2
80192;SHT31;69513;51.990;5.704;2024-03-06T04:00:37;7.6;71.6
80192;SHT31;69513;51.990;5.704;2024-03-06T04:03:08;7.6;71.3
80192;SHT31;69513;51.990;5.704;2024-03-06T04:05:37;7.6;71.1
80192;SHT31;69513;51.990;5.704;2024-03-06T04:08:08;7.5;71.1
80192;SHT31;69513;51.990;5.704;2024-03-06T04:10:37;7.5;71.4
80192;SHT31;69513;51.990;5.704;2024-03-06T04:13:07;7.5;71.5
80192;SHT31;69513;51.990;5.704;2024-03-06T04:15:36;7.5;71.6
80192;SHT31;69513;51.990;5.704;2024-03-06T04:18:09;7.5;71.7
80192;SHT31;69513;51.990;5.704;2024-03-06T04:20:39;7.5;71.8
80192;SHT31;69513;51.990;5.704;2024-03-06T04:23:09;7.5;72.1
80192;SHT31;69513;51.990;5.704;2024-03-06T04:25:38;7.5;72.2
80192;SHT31;69513;51.990;5.704;2024-03-06T04:28:09;7.5;72.0
80192;SHT31;69513;51.990;5.704;2024-03-06T04:30:38;7.5;71.8
80192;SHT31;69513;51.990;5.704;2024-03-06T04:33:09;7.4;71.9
80192;SHT31;69513;51.990;5.704;2024-03-06T04:35:42;7.4;71.9
80192;SHT31;69513;51.990;5.704;2024-03-06T04:38:11;7.4;71.8
80192;SHT31;69513;51.990;5.704;2024-03-06T04:40:41;7.4;71.7
80192;SHT31;69513;51.990;5.704;2024-03-06T04:43:11;7.4;72.0
80192;SHT31;69513;51.990;5.704;2024-03-06T04:45:42;7.4;72.3
80192;SHT31;69513;51.990;5.704;2024-03-06T04:48:11;7.4;72.6
80192;SHT31;69513;51.990;5.704;2024-03-06T04:50:41;7.4;72.7
80192;SHT31;69513;51.990;5.704;2024-03-06T04:53:12;7.4;73.0
80192;SHT31;69513;51.990;5.704;2024-03-06T04:55:43;7.4;73.0
80192;SHT31;69513;51.990;5.704;2024-03-06T04:58:14;7.4;73.1
80192;SHT31;69513;51.990;5.704;2024-03-06T05:00:45;7.4;73.2
80192;SHT31;69513;51.990;5.704;2024-03-06T05:03:14;7.3;73.0
80192;SHT31;69513;51.990;5.704;2024-03-06T05:05:46;7.3;72.9
80192;SHT31;69513;51.990;5.704;2024-03-06T05:08:17;7.3;72.9
80192;SHT31;69513;51.990;5.704;2024-03-06T05:10:48;7.3;73.1
80192;SHT31;69513;51.990;5.704;2024-03-06T05:13:20;7.3;73.1
80192;SHT31;69513;51.990;5.704;2024-03-06T05:15:51;7.3;72.9
80192;SHT31;69513;51.990;5.704;2024-03-06T05:18:22;7.3;73.3
80192;SHT31;69513;51.990;5.704;2024-03-06T05:20:51;7.3;73.2
80192;SHT31;69513;51.990;5.704;2024-03-06T05:23:22;7.3;73.0
80192;SHT31;69513;51.990;5.704;2024-03-06T05:25:51;7.3;73.1
80192;SHT31;69513;51.990;5.704;2024-03-06T05:28:21;7.3;73.3
80192;SHT31;69513;51.990;5.704;2024-03-06T05:30:50;7.3;73.2
80192;SHT31;69513;51.990;5.704;2024-03-06T05:33:20;7.3;73.4
80192;SHT31;69513;51.990;5.704;2024-03-06T05:35:51;7.2;73.6
80192;SHT31;69513;51.990;5.704;2024-03-06T05:38:20;7.2;73.7
80192;SHT31;69513;51.990;5.704;2024-03-06T05:40:51;7.2;73.5
80192;SHT31;69513;51.990;5.704;2024-03-06T05:43:22;7.2;73.3
80192;SHT31;69513;51.990;5.704;2024-03-06T05:45:51;7.2;73.2
80192;SHT31;69513;51.990;5.704;2024-03-06T05:48:21;7.2;73.2
80192;SHT31;69513;51.990;5.704;2024-03-06T05:50:51;7.2;73.1
80192;SHT31;69513;51.990;5.704;2024-03-06T05:53:22;7.2;72.9
80192;SHT31;69513;51.990;5.704;2024-03-06T05:55:52;7.2;72.8
80192;SHT31;69513;51.990;5.704;2024-03-06T05:58:23;7.2;73.0
80192;SHT31;69513;51.990;5.704;2024-03-06T06:00:52;7.2;72.9
80192;SHT31;69513;51.990;5.704;2024-03-06T06:03:22;7.2;72.8
80192;SHT31;69513;51.990;5.704;2024-03-06T06:05:52;7.2;72.8
80192;SHT31;69513;51.990;5.704;2024-03-06T06:08:22;7.1;72.8
80192;SHT31;69513;51.990;5.704;2024-03-06T06:10:54;7.1;72.7
80192;SHT31;69513;51.990;5.704;2024-03-06T06:13:26;7.1;72.6
80192;SHT31;69513;51.990;5.704;2024-03-06T06:15:58;7.1;72.6
80192;SHT31;69513;51.990;5.704;2024-03-06T06:18:30;7.1;72.9
80192;SHT31;69513;51.990;5.704;2024-03-06T06:21:01;7.1;73.1
80192;SHT31;69513;51.990;5.704;2024-03-06T06:23:34;7.1;73.2
80192;SHT31;69513;51.990;5.704;2024-03-06T06:26:08;7.1;73.5
80192;SHT31;69513;51.990;5.704;2024-03-06T06:28:41;7.1;73.8
80192;SHT31;69513;51.990;5.704;2024-03-06T06:31:11;7.1;74.2
80192;SHT31;69513;51.990;5.704;2024-03-06T06:33:41;7.1;74.4
80192;SHT31;69513;51.990;5.704;2024-03-06T06:36:13;7.1;74.5
80192;SHT31;69513;51.990;5.704;2024-03-06T06:38:43;7.1;74.6
80192;SHT31;69513;51.990;5.704;2024-03-06T06:41:13;7.1;74.7
80192;SHT31;69513;51.990;5.704;2024-03-06T06:43:44;7.1;75.0
80192;SHT31;69513;51.990;5.704;2024-03-06T06:46:14;7.1;75.2
80192;SHT31;69513;51.990;5.704;2024-03-06T06:48:46;7.1;75.3
80192;SHT31;69513;51.990;5.704;2024-03-06T06:51:17;7.1;75.3
80192;SHT31;69513;51.990;5.704;2024-03-06T06:53:48;7.1;75.2
80192;SHT31;69513;51.990;5.704;2024-03-06T06:56:17;7.1;74.9
80192;SHT31;69513;51.990;5.704;2024-03-06T06:58:47;7.1;74.9
80192;SHT31;69513;51.990;5.704;2024-03-06T07:01:16;7.2;75.2
80192;SHT31;69513;51.990;5.704;2024-03-06T07:03:48;7.2;75.3
80192;SHT31;69513;51.990;5.704;2024-03-06T07:06:19;7.2;75.7
80192;SHT31;69513;51.990;5.704;2024-03-06T07:08:50;7.2;76.1
80192;SHT31;69513;51.990;5.704;2024-03-06T07:11:22;7.2;76.4
80192;SHT31;69513;51.990;5.704;2024-03-06T07:13:53;7.3;76.9
80192;SHT31;69513;51.990;5.704;2024-03-06T07:16:24;7.3;77.1
80192;SHT31;69513;51.990;5.704;2024-03-06T07:18:53;7.3;77.0
80192;SHT31;69513;51.990;5.704;2024-03-06T07:21:23;7.3;76.7
80192;SHT31;69513;51.990;5.704;2024-03-06T07:23:53;7.4;76.6
80192;SHT31;69513;51.990;5.704;2024-03-06T07:26:23;7.4;76.6
80192;SHT31;69513;51.990;5.704;2024-03-06T07:28:55;7.4;76.4
80192;SHT31;69513;51.990;5.704;2024-03-06T07:31:26;7.4;76.4
80192;SHT31;69513;51.990;5.704;2024-03-06T07:33:56;7.5;76.5
80192;SHT31;69513;51.990;5.704;2024-03-06T07:36:27;7.5;76.5
80192;SHT31;69513;51.990;5.704;2024-03-06T07:38:58;7.5;76.5
80192;SHT31;69513;51.990;5.704;2024-03-06T07:41:28;7.5;76.6
80192;SHT31;69513;51.990;5.704;2024-03-06T07:44:01;7.5;76.7
80192;SHT31;69513;51.990;5.704;2024-03-06T07:46:32;7.6;76.6
80192;SHT31;69513;51.990;5.704;2024-03-06T07:49:02;7.6;76.4
80192;SHT31;69513;51.990;5.704;2024-03-06T07:51:34;7.6;76.3
80192;SHT31;69513;51.990;5.704;2024-03-06T07:54:07;7.6;76.2
80192;SHT31;69513;51.990;5.704;2024-03-06T07:56:37;7.6;76.2
80192;SHT31;69513;51.990;5.704;2024-03-06T07:59:07;7.6;76.1
80192;SHT31;69513;51.990;5.704;2024-03-06T08:01:38;7.6;76.1
80192;SHT31;69513;51.990;5.704;2024-03-06T08:04:08;7.6;76.3
80192;SHT31;69513;51.990;5.704;2024-03-06T08:06:38;7.6;76.6
80192;SHT31;69513;51.990;5.704;2024-03-06T08:09:07;7.6;76.7
80192;SHT31;69513;51.990;5.704;2024-03-06T08:11:37;7.7;76.8
80192;SHT31;69513;51.990;5.704;2024-03-06T08:14:07;7.7;76.7
80192;SHT31;69513;51.990;5.704;2024-03-06T08:16:37;7.7;76.8
80192;SHT31;69513;51.990;5.704;2024-03-06T08:19:08;7.7;76.8
80192;SHT31;69513;51.990;5.704;2024-03-06T08:21:39;7.7;76.7
80192;SHT31;69513;51.990;5.704;2024-03-06T08:24:10;7.8;76.8
80192;SHT31;69513;51.990;5.704;2024-03-06T08:26:43;7.8;77.0
80192;SHT31;69513;51.990;5.704;2024-03-06T08:29:13;7.8;77.1
80192;SHT31;69513;51.990;5.704;2024-03-06T08:31:42;7.8;77.2
80192;SHT31;69513;51.990;5.704;2024-03-06T08:34:12;7.9;77.5
80192;SHT31;69513;51.990;5.704;2024-03-06T08:36:42;7.9;77.4
80192;SHT31;69513;51.990;5.704;2024-03-06T08:39:12;7.9;77.5
80192;SHT31;69513;51.990;5.704;2024-03-06T08:41:44;8.0;77.7
80192;SHT31;69513;51.990;5.704;2024-03-06T08:44:15;8.0;77.7
80192;SHT31;69513;51.990;5.704;2024-03-06T08:46:45;8.1;77.8
80192;SHT31;69513;51.990;5.704;2024-03-06T08:49:15;8.1;77.9
80192;SHT31;69513;51.990;5.704;2024-03-06T08:51:44;8.1;77.8
80192;SHT31;69513;51.990;5.704;2024-03-06T08:54:13;8.2;77.8
80192;SHT31;69513;51.990;5.704;2024-03-06T08:56:45;8.2;77.9
80192;SHT31;69513;51.990;5.704;2024-03-06T08:59:14;8.2;77.9
80192;SHT31;69513;51.990;5.704;2024-03-06T09:01:44;8.3;77.8
80192;SHT31;69513;51.990;5.704;2024-03-06T09:04:14;8.3;77.9
80192;SHT31;69513;51.990;5.704;2024-03-06T09:06:44;8.3;78.0
80192;SHT31;69513;51.990;5.704;2024-03-06T09:09:13;8.4;78.2
80192;SHT31;69513;51.990;5.704;2024-03-06T09:11:43;8.4;78.3
80192;SHT31;69513;51.990;5.704;2024-03-06T09:14:13;8.4;78.2
80192;SHT31;69513;51.990;5.704;2024-03-06T09:16:43;8.5;78.4
80192;SHT31;69513;51.990;5.704;2024-03-06T09:19:15;8.5;78.5
80192;SHT31;69513;51.990;5.704;2024-03-06T09:21:45;8.6;78.5
80192;SHT31;69513;51.990;5.704;2024-03-06T09:24:16;8.6;78.5
80192;SHT31;69513;51.990;5.704;2024-03-06T09:26:47;8.6;78.5
80192;SHT31;69513;51.990;5.704;2024-03-06T09:29:19;8.7;78.5
80192;SHT31;69513;51.990;5.704;2024-03-06T09:31:49;8.7;78.5
80192;SHT31;69513;51.990;5.704;2024-03-06T09:34:19;8.8;78.4
80192;SHT31;69513;51.990;5.704;2024-03-06T09:36:51;8.8;78.4
80192;SHT31;69513;51.990;5.704;2024-03-06T09:39:21;8.8;78.6
80192;SHT31;69513;51.990;5.704;2024-03-06T09:41:53;8.9;78.6
80192;SHT31;69513;51.990;5.704;2024-03-06T09:44:24;8.9;78.6
80192;SHT31;69513;51.990;5.704;2024-03-06T09:46:55;9.0;78.5
80192;SHT31;69513;51.990;5.704;2024-03-06T09:49:26;9.0;78.6
80192;SHT31;69513;51.990;5.704;2024-03-06T09:52:00;9.1;78.4
80192;SHT31;69513;51.990;5.704;2024-03-06T09:54:32;9.1;78.6
80192;SHT31;69513;51.990;5.704;2024-03-06T09:57:04;9.1;78.7
80192;SHT31;69513;51.990;5.704;2024-03-06T09:59:35;9.2;78.3
80192;SHT31;69513;51.990;5.704;2024-03-06T10:02:25;9.2;78.2
80192;SHT31;69513;51.990;5.704;2024-03-06T10:04:56;9.3;78.0
80192;SHT31;69513;51.990;5.704;2024-03-06T10:07:26;9.3;78.1
80192;SHT31;69513;51.990;5.704;2024-03-06T10:09:57;9.3;78.1
80192;SHT31;69513;51.990;5.704;2024-03-06T10:12:29;9.4;78.2
80192;SHT31;69513;51.990;5.704;2024-03-06T10:14:58;9.4;78.4
80192;SHT31;69513;51.990;5.704;2024-03-06T10:17:28;9.4;78.3
80192;SHT31;69513;51.990;5.704;2024-03-06T10:19:57;9.5;78.3
80192;SHT31;69513;51.990;5.704;2024-03-06T10:22:32;9.5;78.2
80192;SHT31;69513;51.990;5.704;2024-03-06T10:25:05;9.6;77.7
80192;SHT31;69513;51.990;5.704;2024-03-06T10:27:37;9.6;77.3
80192;SHT31;69513;51.990;5.704;2024-03-06T10:30:11;9.6;77.1
80192;SHT31;69513;51.990;5.704;2024-03-06T10:32:44;9.6;77.6
80192;SHT31;69513;51.990;5.704;2024-03-06T10:35:20;9.7;77.7
80192;SHT31;69513;51.990;5.704;2024-03-06T10:37:55;9.7;77.7
80192;SHT31;69513;51.990;5.704;2024-03-06T10:40:27;9.7;77.4
80192;SHT31;69513;51.990;5.704;2024-03-06T10:43:02;9.8;77.5
80192;SHT31;69513;51.990;5.704;2024-03-06T10:45:41;9.8;77.5
80192;SHT31;69513;51.990;5.704;2024-03-06T10:48:18;9.8;77.3
80192;SHT31;69513;51.990;5.704;2024-03-06T10:50:50;9.9;76.4
80192;SHT31;69513;51.990;5.704;2024-03-06T10:53:20;9.9;76.2
80192;SHT31;69513;51.990;5.704;2024-03-06T10:55:51;9.9;76.6
80192;SHT31;69513;51.990;5.704;2024-03-06T10:58:20;9.9;76.8
80192;SHT31;69513;51.990;5.704;2024-03-06T11:00:52;10.0;76.8
80192;SHT31;69513;51.990;5.704;2024-03-06T11:03:25;10.0;77.0
80192;SHT31;69513;51.990;5.704;2024-03-06T11:05:58;10.0;77.2
80192;SHT31;69513;51.990;5.704;2024-03-06T11:08:29;10.1;77.2
80192;SHT31;69513;51.990;5.704;2024-03-06T11:11:22;10.1;77.1
80192;SHT31;69513;51.990;5.704;2024-03-06T11:14:00;10.1;76.6
80192;SHT31;69513;51.990;5.704;2024-03-06T11:16:33;10.2;76.5
80192;SHT31;69513;51.990;5.704;2024-03-06T11:19:08;10.2;76.5
80192;SHT31;69513;51.990;5.704;2024-03-06T11:21:47;10.2;76.5
80192;SHT31;69513;51.990;5.704;2024-03-06T11:24:20;10.3;76.0
80192;SHT31;69513;51.990;5.704;2024-03-06T11:27:00;10.3;76.0
80192;SHT31;69513;51.990;5.704;2024-03-06T11:32:26;10.3;76.0
80192;SHT31;69513;51.990;5.704;2024-03-06T11:34:56;10.4;75.9
80192;SHT31;69513;51.990;5.704;2024-03-06T11:37:28;10.4;76.0
80192;SHT31;69513;51.990;5.704;2024-03-06T11:40:03;10.4;76.3
80192;SHT31;69513;51.990;5.704;2024-03-06T11:42:36;10.4;76.8
80192;SHT31;69513;51.990;5.704;2024-03-06T11:45:19;10.5;77.0
80192;SHT31;69513;51.990;5.704;2024-03-06T11:48:02;10.5;77.1
80192;SHT31;69513;51.990;5.704;2024-03-06T11:50:35;10.6;77.1
80192;SHT31;69513;51.990;5.704;2024-03-06T11:53:05;10.7;75.8
80192;SHT31;69513;51.990;5.704;2024-03-06T11:55:35;10.7;75.7
80192;SHT31;69513;51.990;5.704;2024-03-06T11:58:05;10.7;75.3
80192;SHT31;69513;51.990;5.704;2024-03-06T12:00:36;10.8;75.3
80192;SHT31;69513;51.990;5.704;2024-03-06T12:03:08;10.8;76.2
80192;SHT31;69513;51.990;5.704;2024-03-06T12:05:39;10.8;76.4
80192;SHT31;69513;51.990;5.704;2024-03-06T12:08:09;10.8;76.1
80192;SHT31;69513;51.990;5.704;2024-03-06T12:10:39;10.9;75.6
80192;SHT31;69513;51.990;5.704;2024-03-06T12:13:09;10.9;76.0
80192;SHT31;69513;51.990;5.704;2024-03-06T12:15:42;10.9;75.5
80192;SHT31;69513;51.990;5.704;2024-03-06T12:18:12;11.0;75.4
80192;SHT31;69513;51.990;5.704;2024-03-06T12:20:44;11.0;75.9
80192;SHT31;69513;51.990;5.704;2024-03-06T12:23:23;11.1;76.4
80192;SHT31;69513;51.990;5.704;2024-03-06T12:26:06;11.1;76.7
80192;SHT31;69513;51.990;5.704;2024-03-06T12:28:39;11.2;77.6
80192;SHT31;69513;51.990;5.704;2024-03-06T12:31:14;11.3;76.9
80192;SHT31;69513;51.990;5.704;2024-03-06T12:33:45;11.3;77.0
80192;SHT31;69513;51.990;5.704;2024-03-06T12:36:15;11.4;77.1
80192;SHT31;69513;51.990;5.704;2024-03-06T12:38:44;11.5;75.5
80192;SHT31;69513;51.990;5.704;2024-03-06T12:41:15;11.6;76.3
80192;SHT31;69513;51.990;5.704;2024-03-06T12:43:45;11.7;76.1
80192;SHT31;69513;51.990;5.704;2024-03-06T12:46:15;11.8;77.0
80192;SHT31;69513;51.990;5.704;2024-03-06T12:48:46;11.9;76.2
80192;SHT31;69513;51.990;5.704;2024-03-06T12:51:15;12.0;74.8
80192;SHT31;69513;51.990;5.704;2024-03-06T12:53:46;12.1;75.8
80192;SHT31;69513;51.990;5.704;2024-03-06T12:56:17;12.2;72.9
80192;SHT31;69513;51.990;5.704;2024-03-06T12:58:47;12.3;73.4
80192;SHT31;69513;51.990;5.704;2024-03-06T13:01:17;12.4;72.7
80192;SHT31;69513;51.990;5.704;2024-03-06T13:03:47;12.5;72.0
80192;SHT31;69513;51.990;5.704;2024-03-06T13:06:18;12.6;72.5
80192;SHT31;69513;51.990;5.704;2024-03-06T13:08:48;12.6;71.0
80192;SHT31;69513;51.990;5.704;2024-03-06T13:11:18;12.7;70.7
80192;SHT31;69513;51.990;5.704;2024-03-06T13:13:49;12.8;70.8
80192;SHT31;69513;51.990;5.704;2024-03-06T13:16:18;12.9;70.4
80192;SHT31;69513;51.990;5.704;2024-03-06T13:18:50;13.0;70.1
80192;SHT31;69513;51.990;5.704;2024-03-06T13:21:21;13.0;68.6
80192;SHT31;69513;51.990;5.704;2024-03-06T13:23:51;13.1;69.5
80192;SHT31;69513;51.990;5.704;2024-03-06T13:26:20;13.2;66.6
80192;SHT31;69513;51.990;5.704;2024-03-06T13:28:52;13.3;64.0
80192;SHT31;69513;51.990;5.704;2024-03-06T13:31:21;13.4;66.9
80192;SHT31;69513;51.990;5.704;2024-03-06T13:33:51;13.5;64.4
80192;SHT31;69513;51.990;5.704;2024-03-06T13:36:22;13.6;66.3
80192;SHT31;69513;51.990;5.704;2024-03-06T13:38:51;13.7;66.0
80192;SHT31;69513;51.990;5.704;2024-03-06T13:41:21;13.8;60.8
80192;SHT31;69513;51.990;5.704;2024-03-06T13:43:51;13.9;63.2
80192;SHT31;69513;51.990;5.704;2024-03-06T13:46:21;13.9;64.6
80192;SHT31;69513;51.990;5.704;2024-03-06T13:48:50;14.0;62.2
80192;SHT31;69513;51.990;5.704;2024-03-06T13:51:19;14.1;63.5
80192;SHT31;69513;51.990;5.704;2024-03-06T13:53:49;14.2;65.6
80192;SHT31;69513;51.990;5.704;2024-03-06T13:56:18;14.2;64.4
80192;SHT31;69513;51.990;5.704;2024-03-06T13:58:48;14.3;61.3
80192;SHT31;69513;51.990;5.704;2024-03-06T14:01:17;14.3;63.5
80192;SHT31;69513;51.990;5.704;2024-03-06T14:03:47;14.4;61.9
80192;SHT31;69513;51.990;5.704;2024-03-06T14:06:16;14.4;60.0
80192;SHT31;69513;51.990;5.704;2024-03-06T14:08:46;14.5;60.7
80192;SHT31;69513;51.990;5.704;2024-03-06T14:11:15;14.6;61.1
80192;SHT31;69513;51.990;5.704;2024-03-06T14:13:46;14.6;59.9
80192;SHT31;69513;51.990;5.704;2024-03-06T14:16:15;14.6;58.9
80192;SHT31;69513;51.990;5.704;2024-03-06T14:18:45;14.6;58.5
80192;SHT31;69513;51.990;5.704;2024-03-06T14:21:14;14.6;59.7
80192;SHT31;69513;51.990;5.704;2024-03-06T14:23:44;14.6;60.0
80192;SHT31;69513;51.990;5.704;2024-03-06T14:26:13;14.6;56.9
80192;SHT31;69513;51.990;5.704;2024-03-06T14:28:44;14.7;59.8
80192;SHT31;69513;51.990;5.704;2024-03-06T14:31:13;14.7;59.6
80192;SHT31;69513;51.990;5.704;2024-03-06T14:33:45;14.7;58.0
80192;SHT31;69513;51.990;5.704;2024-03-06T14:36:17;14.8;57.3
80192;SHT31;69513;51.990;5.704;2024-03-06T14:38:49;14.8;58.1
80192;SHT31;69513;51.990;5.704;2024-03-06T14:41:20;14.9;58.5
80192;SHT31;69513;51.990;5.704;2024-03-06T14:43:50;15.0;55.0
80192;SHT31;69513;51.990;5.704;2024-03-06T14:46:21;15.1;57.0
80192;SHT31;69513;51.990;5.704;2024-03-06T14:48:50;15.3;57.7
80192;SHT31;69513;51.990;5.704;2024-03-06T14:51:20;15.5;57.4
80192;SHT31;69513;51.990;5.704;2024-03-06T14:53:49;15.6;55.8
80192;SHT31;69513;51.990;5.704;2024-03-06T14:56:19;15.7;54.8
80192;SHT31;69513;51.990;5.704;2024-03-06T14:58:49;15.7;53.6
80192;SHT31;69513;51.990;5.704;2024-03-06T15:01:19;15.8;53.4
80192;SHT31;69513;51.990;5.704;2024-03-06T15:03:49;15.7;53.2
80192;SHT31;69513;51.990;5.704;2024-03-06T15:06:19;15.7;52.0
80192;SHT31;69513;51.990;5.704;2024-03-06T15:08:50;15.7;53.0
80192;SHT31;69513;51.990;5.704;2024-03-06T15:11:21;15.6;53.2
80192;SHT31;69513;51.990;5.704;2024-03-06T15:13:51;15.6;51.3
80192;SHT31;69513;51.990;5.704;2024-03-06T15:16:21;15.5;53.2
80192;SHT31;69513;51.990;5.704;2024-03-06T15:18:50;15.4;53.8
80192;SHT31;69513;51.990;5.704;2024-03-06T15:21:25;15.4;53.3
80192;SHT31;69513;51.990;5.704;2024-03-06T15:23:54;15.3;54.2
80192;SHT31;69513;51.990;5.704;2024-03-06T15:26:25;15.3;54.7
80192;SHT31;69513;51.990;5.704;2024-03-06T15:28:56;15.2;53.9
80192;SHT31;69513;51.990;5.704;2024-03-06T15:31:27;15.1;52.5
80192;SHT31;69513;51.990;5.704;2024-03-06T15:33:57;15.0;52.7
80192;SHT31;69513;51.990;5.704;2024-03-06T15:36:26;15.0;53.1
80192;SHT31;69513;51.990;5.704;2024-03-06T15:38:56;14.9;53.7
80192;SHT31;69513;51.990;5.704;2024-03-06T15:41:26;14.8;55.0
80192;SHT31;69513;51.990;5.704;2024-03-06T15:43:56;14.7;54.4
80192;SHT31;69513;51.990;5.704;2024-03-06T15:46:25;14.7;54.9
80192;SHT31;69513;51.990;5.704;2024-03-06T15:48:58;14.6;56.0
80192;SHT31;69513;51.990;5.704;2024-03-06T15:51:29;14.5;55.0
80192;SHT31;69513;51.990;5.704;2024-03-06T15:54:00;14.5;55.3
80192;SHT31;69513;51.990;5.704;2024-03-06T15:56:29;14.4;56.8
80192;SHT31;69513;51.990;5.704;2024-03-06T15:59:00;14.4;56.7
80192;SHT31;69513;51.990;5.704;2024-03-06T16:01:31;14.3;56.6
80192;SHT31;69513;51.990;5.704;2024-03-06T16:04:01;14.3;57.7
80192;SHT31;69513;51.990;5.704;2024-03-06T16:06:32;14.2;57.0
80192;SHT31;69513;51.990;5.704;2024-03-06T16:09:02;14.1;57.5
80192;SHT31;69513;51.990;5.704;2024-03-06T16:11:35;14.1;58.8
80192;SHT31;69513;51.990;5.704;2024-03-06T16:14:05;14.0;58.3
80192;SHT31;69513;51.990;5.704;2024-03-06T16:16:35;14.0;57.8
80192;SHT31;69513;51.990;5.704;2024-03-06T16:19:06;13.9;58.7
80192;SHT31;69513;51.990;5.704;2024-03-06T16:21:38;13.9;58.2
80192;SHT31;69513;51.990;5.704;2024-03-06T16:24:08;13.8;58.6
80192;SHT31;69513;51.990;5.704;2024-03-06T16:26:40;13.8;58.1
80192;SHT31;69513;51.990;5.704;2024-03-06T16:29:10;13.7;58.8
80192;SHT31;69513;51.990;5.704;2024-03-06T16:31:41;13.7;58.8
80192;SHT31;69513;51.990;5.704;2024-03-06T16:34:12;13.6;58.4
80192;SHT31;69513;51.990;5.704;2024-03-06T16:36:46;13.6;58.7
80192;SHT31;69513;51.990;5.704;2024-03-06T16:39:18;13.5;59.0